Time;durP1;ratioP1;P1;durP2;ratioP2;P2;SDS_P1;SDS_P2;PMS_P1;PMS_P2;Temp;Humidity;BMP_temperature;BMP_pressure;BME280_temperature;BME280_humidity;BME280_pressure;Samples;Min_cycle;Max_cycle;Signal;HPM_P1;HPM_P2
2021/09/03 00:01:12;;;;;;;7.50;5.20;;;22.50;57.30;;;;;;6231017;23;20410;-84
2021/09/03 00:03:37;;;;;;;6.43;5.03;;;22.50;57.30;;;;;;6231206;23;20151;-84
2021/09/03 00:06:03;;;;;;;6.43;5.43;;;22.50;57.30;;;;;;6230686;23;20410;-83
2021/09/03 00:08:36;;;;;;;6.53;5.40;;;22.50;57.30;;;;;;6231531;23;20139;-84
2021/09/03 00:11:02;;;;;;;7.80;5.27;;;22.50;57.20;;;;;;6229920;23;20158;-84
2021/09/03 00:13:28;;;;;;;7.37;5.50;;;22.50;57.20;;;;;;6231096;23;20386;-84
2021/09/03 00:15:54;;;;;;;7.60;6.30;;;22.50;57.20;;;;;;6255406;23;20215;-84
2021/09/03 00:18:20;;;;;;;7.97;6.00;;;22.50;57.20;;;;;;6255941;23;20155;-83
2021/09/03 00:20:49;;;;;;;8.77;6.20;;;22.50;57.20;;;;;;6231924;23;20374;-84
2021/09/03 00:23:16;;;;;;;8.23;5.43;;;22.50;57.20;;;;;;6255747;23;20171;-83
2021/09/03 00:25:42;;;;;;;7.80;6.47;;;22.50;57.20;;;;;;6232267;23;20401;-84
2021/09/03 00:28:08;;;;;;;7.00;6.30;;;22.50;57.20;;;;;;6229398;23;20390;-84
2021/09/03 00:30:33;;;;;;;6.77;5.10;;;22.50;57.10;;;;;;6230970;23;20682;-83
2021/09/03 00:33:02;;;;;;;8.60;5.40;;;22.50;57.10;;;;;;6232400;23;20182;-84
2021/09/03 00:35:28;;;;;;;7.03;5.17;;;22.50;57.10;;;;;;6254943;23;20171;-83
2021/09/03 00:37:54;;;;;;;6.70;5.40;;;22.50;57.10;;;;;;6230329;23;20393;-84
2021/09/03 00:40:19;;;;;;;6.60;4.63;;;22.50;57.10;;;;;;6230706;23;20155;-84
2021/09/03 00:42:45;;;;;;;8.13;5.90;;;22.50;57.10;;;;;;6255351;23;20212;-84
2021/09/03 00:45:11;;;;;;;5.43;4.80;;;22.50;57.10;;;;;;6231772;23;20148;-84
2021/09/03 00:47:37;;;;;;;5.80;5.20;;;22.50;57.10;;;;;;6229665;23;20151;-84
2021/09/03 00:50:06;;;;;;;6.90;6.00;;;22.50;57.10;;;;;;6255813;23;20460;-83
2021/09/03 00:52:32;;;;;;;7.30;5.70;;;22.50;57.10;;;;;;6231813;23;20147;-84
2021/09/03 00:54:58;;;;;;;7.67;6.03;;;22.50;57.10;;;;;;6231757;23;20366;-84
2021/09/03 00:57:42;;;;;;;7.50;5.67;;;22.50;57.10;;;;;;6229676;23;20436;-84
2021/09/03 01:00:11;;;;;;;7.47;5.87;;;22.50;57.00;;;;;;6230448;23;20390;-83
2021/09/03 01:02:37;;;;;;;8.10;7.00;;;22.50;57.10;;;;;;6229673;23;20453;-83
2021/09/03 01:05:06;;;;;;;7.37;6.20;;;22.50;57.10;;;;;;6231934;23;20402;-83
2021/09/03 01:07:32;;;;;;;6.90;5.10;;;22.50;57.10;;;;;;6230398;23;20211;-84
2021/09/03 01:09:58;;;;;;;9.47;5.80;;;22.50;57.10;;;;;;6231235;23;20714;-83
2021/09/03 01:12:24;;;;;;;6.70;5.20;;;22.50;57.00;;;;;;6255246;23;20383;-84
2021/09/03 01:14:49;;;;;;;7.20;5.83;;;22.50;57.10;;;;;;6255244;23;20203;-84
2021/09/03 01:17:15;;;;;;;9.37;6.10;;;22.50;57.00;;;;;;6231131;23;20179;-84
2021/09/03 01:19:41;;;;;;;6.57;5.83;;;22.50;57.00;;;;;;6232071;23;20151;-84
2021/09/03 01:22:12;;;;;;;7.90;5.70;;;22.50;57.00;;;;;;6229317;23;20171;-85
2021/09/03 01:24:38;;;;;;;8.17;6.10;;;22.50;57.00;;;;;;6231278;23;20143;-84
2021/09/03 01:27:04;;;;;;;6.47;5.70;;;22.50;57.00;;;;;;6231485;23;20374;-85
2021/09/03 01:29:33;;;;;;;6.53;5.83;;;22.50;57.00;;;;;;6254971;23;20213;-85
2021/09/03 01:32:01;;;;;;;6.37;5.53;;;22.50;57.00;;;;;;6232094;23;20147;-85
2021/09/03 01:34:27;;;;;;;7.10;5.57;;;22.50;57.00;;;;;;6230941;23;20374;-84
2021/09/03 01:36:53;;;;;;;6.50;5.80;;;22.50;57.00;;;;;;6231087;23;20376;-84
2021/09/03 01:39:18;;;;;;;8.10;5.53;;;22.50;57.00;;;;;;6229590;23;20155;-84
2021/09/03 01:41:44;;;;;;;7.30;5.70;;;22.50;57.00;;;;;;6228822;23;20182;-84
2021/09/03 01:44:15;;;;;;;6.40;5.47;;;22.40;56.90;;;;;;6254633;23;20178;-84
2021/09/03 01:46:44;;;;;;;6.53;5.67;;;22.40;56.90;;;;;;6229739;23;20163;-84
2021/09/03 01:49:10;;;;;;;6.40;5.73;;;22.40;56.90;;;;;;6230068;23;20465;-84
2021/09/03 01:51:41;;;;;;;7.23;5.73;;;22.40;56.90;;;;;;6231529;23;20457;-84
2021/09/03 01:54:07;;;;;;;6.83;6.10;;;22.40;56.90;;;;;;6229693;23;20147;-84
2021/09/03 01:56:32;;;;;;;7.87;6.67;;;22.40;56.90;;;;;;6255422;23;20390;-84
2021/09/03 01:58:58;;;;;;;6.60;5.80;;;22.40;56.90;;;;;;6233007;23;20159;-84
2021/09/03 02:01:24;;;;;;;6.40;5.80;;;22.40;56.90;;;;;;6223163;23;20180;-84
2021/09/03 02:03:59;;;;;;;7.50;6.50;;;22.40;56.90;;;;;;6202784;23;20206;-84
2021/09/03 02:06:24;;;;;;;6.13;5.53;;;22.40;56.90;;;;;;6204140;23;20149;-84
2021/09/03 02:08:50;;;;;;;7.73;6.27;;;22.40;56.90;;;;;;6202972;23;20371;-84
2021/09/03 02:11:17;;;;;;;8.10;6.33;;;22.40;56.90;;;;;;6203722;23;20144;-84
2021/09/03 02:13:45;;;;;;;7.47;5.83;;;22.40;56.90;;;;;;6176993;23;20155;-83
2021/09/03 02:16:11;;;;;;;8.80;6.10;;;22.40;56.90;;;;;;6176976;23;20453;-83
2021/09/03 02:18:37;;;;;;;8.23;5.80;;;22.40;56.90;;;;;;6202978;23;20375;-83
2021/09/03 02:21:11;;;;;;;8.00;7.20;;;22.40;56.80;;;;;;6202653;23;20151;-84
2021/09/03 02:23:37;;;;;;;7.23;6.00;;;22.40;56.80;;;;;;6176029;23;20559;-84
2021/09/03 02:26:06;;;;;;;7.93;6.27;;;22.40;56.80;;;;;;6202803;23;20375;-83
2021/09/03 02:28:33;;;;;;;6.90;6.20;;;22.40;56.80;;;;;;6202533;23;20371;-83
2021/09/03 02:30:59;;;;;;;7.10;6.00;;;22.40;56.80;;;;;;6176229;23;20861;-83
2021/09/03 02:33:25;;;;;;;6.80;5.30;;;22.40;56.80;;;;;;6176819;23;20386;-83
2021/09/03 02:35:51;;;;;;;8.00;6.57;;;22.40;56.80;;;;;;6176570;23;20433;-83
2021/09/03 02:38:17;;;;;;;6.17;5.33;;;22.40;56.80;;;;;;6202670;23;20163;-83
2021/09/03 02:40:43;;;;;;;9.70;5.90;;;22.40;56.80;;;;;;6202456;23;20146;-83
2021/09/03 02:43:09;;;;;;;8.23;6.60;;;22.40;56.80;;;;;;6202656;23;20415;-83
2021/09/03 02:45:34;;;;;;;7.70;6.50;;;22.40;56.80;;;;;;6202598;23;20360;-84
2021/09/03 02:48:01;;;;;;;8.20;6.30;;;22.40;56.80;;;;;;6202787;23;20454;-84
2021/09/03 02:50:28;;;;;;;6.90;6.20;;;22.40;56.70;;;;;;6176261;23;20380;-83
2021/09/03 02:52:55;;;;;;;8.80;7.00;;;22.40;56.70;;;;;;6202709;23;20384;-83
2021/09/03 02:55:25;;;;;;;8.23;6.40;;;22.40;56.70;;;;;;6202555;23;20375;-84
2021/09/03 02:57:54;;;;;;;8.50;6.27;;;22.40;56.70;;;;;;6202154;23;20471;-84
2021/09/03 03:00:19;;;;;;;8.40;5.93;;;22.40;56.70;;;;;;6177121;23;20382;-83
2021/09/03 03:02:45;;;;;;;7.27;6.50;;;22.30;56.70;;;;;;6201714;23;20426;-83
2021/09/03 03:05:11;;;;;;;9.20;6.47;;;22.30;56.60;;;;;;6174998;23;20379;-85
2021/09/03 03:07:40;;;;;;;5.70;5.07;;;22.30;56.60;;;;;;6196202;23;20223;-85
2021/09/03 03:10:10;;;;;;;7.40;6.70;;;22.30;56.60;;;;;;6170886;23;20198;-85
2021/09/03 03:12:35;;;;;;;7.33;6.50;;;22.30;56.60;;;;;;6195634;23;20402;-85
2021/09/03 03:15:01;;;;;;;6.50;5.50;;;22.30;56.60;;;;;;6196220;23;20371;-85
2021/09/03 03:17:27;;;;;;;9.53;6.70;;;22.30;56.60;;;;;;6171036;23;20242;-86
2021/09/03 03:19:53;;;;;;;7.70;6.40;;;22.30;56.60;;;;;;6170129;23;20159;-85
2021/09/03 03:22:18;;;;;;;8.97;6.43;;;22.30;56.60;;;;;;6195956;23;20172;-85
2021/09/03 03:24:44;;;;;;;7.20;6.00;;;22.30;56.60;;;;;;6169517;23;20160;-86
2021/09/03 03:27:13;;;;;;;8.13;6.60;;;22.30;56.60;;;;;;6170194;23;20159;-85
2021/09/03 03:29:42;;;;;;;7.73;5.70;;;22.30;56.60;;;;;;6196736;23;20375;-85
2021/09/03 03:32:08;;;;;;;7.53;6.70;;;22.30;56.60;;;;;;6169830;23;20938;-85
2021/09/03 03:34:34;;;;;;;7.63;6.30;;;22.30;56.50;;;;;;6169094;23;20410;-85
2021/09/03 03:37:00;;;;;;;7.77;6.60;;;22.30;56.60;;;;;;6195712;23;20375;-85
2021/09/03 03:39:26;;;;;;;7.93;7.07;;;22.30;56.50;;;;;;6170498;23;20575;-86
2021/09/03 03:41:52;;;;;;;8.30;6.43;;;22.30;56.50;;;;;;6195582;23;20425;-85
2021/09/03 03:44:19;;;;;;;9.57;6.50;;;22.30;56.50;;;;;;6169819;23;20880;-85
2021/09/03 03:46:45;;;;;;;8.37;6.67;;;22.30;56.50;;;;;;6170050;23;20495;-85
2021/09/03 03:49:11;;;;;;;8.07;6.23;;;22.30;56.50;;;;;;6196262;23;20454;-85
2021/09/03 03:51:37;;;;;;;7.07;6.37;;;22.30;56.50;;;;;;6195836;23;20371;-85
2021/09/03 03:54:03;;;;;;;7.97;7.17;;;22.30;56.50;;;;;;6169685;23;20387;-85
2021/09/03 03:56:31;;;;;;;7.60;5.93;;;22.30;56.50;;;;;;6170220;23;20581;-86
2021/09/03 03:58:56;;;;;;;7.90;7.07;;;22.30;56.50;;;;;;6173037;23;20383;-86
2021/09/03 04:01:22;;;;;;;7.50;6.70;;;22.20;56.40;;;;;;6186011;23;20430;-86
2021/09/03 04:03:48;;;;;;;6.80;6.10;;;22.20;56.40;;;;;;6229114;23;20143;-86
2021/09/03 04:06:14;;;;;;;8.00;6.60;;;22.20;56.40;;;;;;6252992;23;20151;-86
2021/09/03 04:08:39;;;;;;;6.50;5.90;;;22.20;56.40;;;;;;6226988;23;20182;-86
2021/09/03 04:11:05;;;;;;;7.60;6.80;;;22.20;56.40;;;;;;6226971;23;20177;-86
2021/09/03 04:13:31;;;;;;;8.67;7.00;;;22.20;56.40;;;;;;6227028;23;20162;-86
2021/09/03 04:15:57;;;;;;;8.37;7.20;;;22.20;56.40;;;;;;6229011;23;20597;-86
2021/09/03 04:18:22;;;;;;;6.87;6.17;;;22.20;56.40;;;;;;6227969;23;20147;-86
2021/09/03 04:20:48;;;;;;;7.33;6.60;;;22.20;56.30;;;;;;6228008;23;20481;-86
2021/09/03 04:23:14;;;;;;;9.90;5.97;;;22.20;56.30;;;;;;6252396;23;20183;-86
2021/09/03 04:25:39;;;;;;;6.37;5.60;;;22.20;56.30;;;;;;6227490;23;20143;-85
2021/09/03 04:28:05;;;;;;;8.30;6.43;;;22.20;56.30;;;;;;6227685;23;20198;-86
2021/09/03 04:30:31;;;;;;;7.93;6.37;;;22.30;56.30;;;;;;6228445;23;20641;-86
2021/09/03 04:32:57;;;;;;;7.63;6.83;;;22.30;56.30;;;;;;6228313;23;20484;-86
2021/09/03 04:35:24;;;;;;;6.73;6.03;;;22.30;56.20;;;;;;6252616;23;20410;-85
2021/09/03 04:37:53;;;;;;;7.70;7.00;;;22.30;56.20;;;;;;6227122;23;20162;-85
2021/09/03 04:40:21;;;;;;;7.37;6.53;;;22.30;56.10;;;;;;6229844;23;20441;-86
2021/09/03 04:42:47;;;;;;;6.90;6.20;;;22.30;56.10;;;;;;6228171;23;20409;-86
2021/09/03 04:45:14;;;;;;;8.73;6.10;;;22.30;56.10;;;;;;6252754;23;20406;-86
2021/09/03 04:47:40;;;;;;;7.53;6.87;;;22.30;56.00;;;;;;6228291;23;20143;-85
2021/09/03 04:50:07;;;;;;;7.63;6.43;;;22.40;56.10;;;;;;6227139;23;20379;-86
2021/09/03 04:52:36;;;;;;;6.93;6.23;;;22.40;56.00;;;;;;6228441;23;20151;-86
2021/09/03 04:55:02;;;;;;;7.93;6.17;;;22.40;56.00;;;;;;6227554;23;20378;-86
2021/09/03 04:57:28;;;;;;;7.30;6.60;;;22.40;56.00;;;;;;6252442;23;20393;-86
2021/09/03 04:59:53;;;;;;;7.37;6.67;;;22.40;55.90;;;;;;6228887;23;20195;-86
2021/09/03 05:02:20;;;;;;;9.80;6.40;;;22.40;55.90;;;;;;6251362;23;20195;-86
2021/09/03 05:04:46;;;;;;;7.23;6.53;;;22.40;55.90;;;;;;6228404;23;20374;-86
2021/09/03 05:07:11;;;;;;;9.43;7.13;;;22.40;55.90;;;;;;6228278;23;20151;-86
2021/09/03 05:09:37;;;;;;;7.53;6.67;;;22.40;56.40;;;;;;6228230;23;20143;-86
2021/09/03 05:12:04;;;;;;;8.67;6.40;;;22.40;55.80;;;;;;6227185;23;20151;-86
2021/09/03 05:14:29;;;;;;;8.63;6.80;;;22.40;55.80;;;;;;6226307;23;20617;-85
2021/09/03 05:16:55;;;;;;;8.47;6.80;;;22.40;55.80;;;;;;6226379;23;20374;-85
2021/09/03 05:19:21;;;;;;;6.87;6.03;;;22.40;55.80;;;;;;6226266;23;20182;-86
2021/09/03 05:21:47;;;;;;;6.77;5.50;;;22.40;55.70;;;;;;6227057;23;20413;-86
2021/09/03 05:24:12;;;;;;;8.17;6.53;;;22.40;55.70;;;;;;6251228;23;20178;-86
2021/09/03 05:26:38;;;;;;;6.93;6.17;;;22.40;55.70;;;;;;6251337;23;20158;-86
2021/09/03 05:29:04;;;;;;;8.27;6.87;;;22.40;55.70;;;;;;6225801;23;20210;-86
2021/09/03 05:31:30;;;;;;;7.07;6.37;;;22.40;55.70;;;;;;6225543;23;20155;-85
2021/09/03 05:33:55;;;;;;;11.20;7.37;;;22.40;55.60;;;;;;6226784;23;20214;-86
2021/09/03 05:36:23;;;;;;;8.40;7.60;;;22.40;55.60;;;;;;6226398;23;20590;-86
2021/09/03 05:38:50;;;;;;;7.40;6.63;;;22.50;55.70;;;;;;6225908;23;20178;-86
2021/09/03 05:41:16;;;;;;;7.30;6.33;;;22.40;55.60;;;;;;6227823;23;20377;-86
2021/09/03 05:43:42;;;;;;;7.90;7.10;;;22.40;55.60;;;;;;6226714;23;20461;-86
2021/09/03 05:46:07;;;;;;;8.10;6.53;;;22.50;55.70;;;;;;6226519;23;20390;-86
2021/09/03 05:48:33;;;;;;;7.40;6.63;;;22.50;55.60;;;;;;6227899;23;20144;-86
2021/09/03 05:51:01;;;;;;;6.20;5.60;;;22.50;55.60;;;;;;6227176;23;20206;-86
2021/09/03 05:53:27;;;;;;;8.83;6.10;;;22.50;55.60;;;;;;6226700;23;20383;-85
2021/09/03 05:55:53;;;;;;;7.37;6.53;;;22.50;55.60;;;;;;6227848;23;20370;-86
2021/09/03 05:58:19;;;;;;;7.10;6.40;;;22.50;55.60;;;;;;6225815;23;20162;-86
2021/09/03 06:00:44;;;;;;;6.73;6.03;;;22.50;55.50;;;;;;6250144;23;20155;-86
2021/09/03 06:03:10;;;;;;;7.60;6.80;;;22.50;55.50;;;;;;6197308;23;20187;-85
2021/09/03 06:05:36;;;;;;;8.10;6.40;;;22.50;55.50;;;;;;6170828;23;20152;-86
2021/09/03 06:08:02;;;;;;;6.40;5.80;;;22.50;55.50;;;;;;6171429;23;20383;-86
2021/09/03 06:10:27;;;;;;;6.83;6.00;;;22.50;55.50;;;;;;6172022;23;20171;-86
2021/09/03 06:12:53;;;;;;;8.00;5.83;;;22.40;56.00;;;;;;6171621;23;20186;-86
2021/09/03 06:15:31;;;;;;;7.93;6.40;;;22.50;55.50;;;;;;6171578;23;20156;-86
2021/09/03 06:18:20;;;;;;;7.03;5.83;;;22.50;55.50;;;;;;6171659;23;20162;-86
2021/09/03 06:20:45;;;;;;;6.20;5.60;;;22.50;55.60;;;;;;6171457;23;20425;-86
2021/09/03 06:23:12;;;;;;;6.70;5.57;;;22.50;55.60;;;;;;6171425;23;20446;-86
2021/09/03 06:25:41;;;;;;;6.53;5.77;;;22.50;55.60;;;;;;6171462;23;20152;-86
2021/09/03 06:28:07;;;;;;;6.30;5.70;;;22.50;55.60;;;;;;6196739;23;20426;-86
2021/09/03 06:33:54;;;;;;;6.33;5.37;;;22.50;55.60;;;;;;6196846;23;20613;-86
2021/09/03 06:36:20;;;;;;;6.50;5.27;;;22.50;55.70;;;;;;6196314;23;20371;-86
2021/09/03 06:38:46;;;;;;;6.47;5.20;;;22.50;55.70;;;;;;6169360;23;20167;-86
2021/09/03 06:41:11;;;;;;;9.17;5.53;;;22.50;55.70;;;;;;6195639;23;20167;-86
2021/09/03 06:43:37;;;;;;;6.80;6.10;;;22.50;55.70;;;;;;6198985;23;20143;-86
2021/09/03 06:46:03;;;;;;;7.60;6.23;;;22.50;55.70;;;;;;6171079;23;20158;-85
2021/09/03 06:48:36;;;;;;;5.63;5.00;;;22.60;55.80;;;;;;6170796;23;20156;-87
2021/09/03 06:51:02;;;;;;;7.30;6.60;;;22.60;55.70;;;;;;6170717;23;20155;-87
2021/09/03 06:53:27;;;;;;;6.00;5.40;;;22.60;55.70;;;;;;6200690;23;20443;-85
2021/09/03 06:59:15;;;;;;;8.03;5.37;;;22.60;55.80;;;;;;6204411;23;20159;-86
2021/09/03 07:01:41;;;;;;;5.73;5.13;;;22.60;55.90;;;;;;6199413;23;20493;-85
2021/09/03 07:04:07;;;;;;;6.87;5.97;;;22.60;55.90;;;;;;6232031;23;20182;-85
2021/09/03 07:06:33;;;;;;;5.80;5.20;;;22.60;56.00;;;;;;6234103;23;20143;-86
2021/09/03 07:09:04;;;;;;;5.53;5.03;;;22.60;55.90;;;;;;6234384;23;20189;-85
2021/09/03 07:11:31;;;;;;;6.27;4.93;;;22.60;55.90;;;;;;6234003;23;20398;-86
2021/09/03 07:13:57;;;;;;;8.00;5.87;;;22.70;56.00;;;;;;6234122;23;20408;-86
2021/09/03 07:16:22;;;;;;;5.27;4.60;;;22.70;56.00;;;;;;6233558;23;20373;-86
2021/09/03 07:18:49;;;;;;;5.67;5.17;;;22.70;56.00;;;;;;6233624;23;20382;-85
2021/09/03 07:21:15;;;;;;;5.97;5.03;;;22.70;56.00;;;;;;6257618;23;20170;-86
2021/09/03 07:23:41;;;;;;;6.60;4.70;;;22.70;56.00;;;;;;6233405;23;20438;-86
2021/09/03 07:26:07;;;;;;;5.87;5.27;;;22.70;56.00;;;;;;6232607;23;20155;-86
2021/09/03 07:28:33;;;;;;;6.80;4.90;;;22.70;56.00;;;;;;6233811;23;20207;-86
2021/09/03 07:30:59;;;;;;;5.20;4.40;;;22.70;56.00;;;;;;6257034;23;20911;-86
2021/09/03 07:33:25;;;;;;;5.63;5.03;;;22.80;56.00;;;;;;6257506;23;20162;-86
2021/09/03 07:35:50;;;;;;;5.43;4.87;;;22.80;56.00;;;;;;6233408;23;20143;-86
2021/09/03 07:38:16;;;;;;;4.97;4.30;;;22.70;55.90;;;;;;6234214;23;20409;-86
2021/09/03 07:44:07;;;;;;;5.27;4.77;;;22.80;56.00;;;;;;6234278;23;20429;-86
2021/09/03 07:46:33;;;;;;;5.27;4.70;;;22.80;56.10;;;;;;6257194;23;20405;-85
2021/09/03 07:48:59;;;;;;;5.33;4.37;;;22.80;56.10;;;;;;6233864;23;20363;-86
2021/09/03 07:51:25;;;;;;;5.47;4.97;;;22.80;56.10;;;;;;6233384;23;20144;-85
2021/09/03 07:53:53;;;;;;;5.53;5.03;;;22.80;56.10;;;;;;6233959;23;20401;-85
2021/09/03 07:56:19;;;;;;;5.27;4.87;;;22.80;56.10;;;;;;6231837;23;20154;-86
2021/09/03 07:58:44;;;;;;;6.23;5.10;;;22.80;56.10;;;;;;6233456;23;20404;-86
2021/09/03 08:01:10;;;;;;;5.23;4.73;;;22.80;56.10;;;;;;6257417;23;20163;-85
2021/09/03 08:03:36;;;;;;;5.20;4.70;;;22.80;56.10;;;;;;6256999;23;20474;-86
2021/09/03 08:06:01;;;;;;;7.07;4.90;;;22.80;56.10;;;;;;6257398;23;20189;-86
2021/09/03 08:08:27;;;;;;;4.93;4.43;;;22.80;56.10;;;;;;6232458;23;20155;-86
2021/09/03 08:10:53;;;;;;;7.03;4.80;;;22.80;56.10;;;;;;6234055;23;20177;-86
2021/09/03 08:13:19;;;;;;;4.70;4.20;;;22.80;56.10;;;;;;6234195;23;20147;-86
2021/09/03 08:15:45;;;;;;;4.90;4.43;;;22.80;56.10;;;;;;6257873;23;20153;-86
2021/09/03 08:18:11;;;;;;;5.17;4.53;;;22.80;56.10;;;;;;6233652;23;20151;-86
2021/09/03 08:20:37;;;;;;;5.20;4.70;;;22.80;56.00;;;;;;6258004;23;20397;-86
2021/09/03 08:23:04;;;;;;;5.37;4.00;;;22.80;56.10;;;;;;6233959;23;20410;-86
2021/09/03 08:25:30;;;;;;;5.53;5.03;;;22.80;56.10;;;;;;6232671;23;20401;-87
2021/09/03 08:27:56;;;;;;;5.10;4.60;;;22.80;56.10;;;;;;6231851;23;20378;-87
2021/09/03 08:30:22;;;;;;;5.77;4.63;;;22.80;56.00;;;;;;6258138;23;20378;-86
2021/09/03 08:32:48;;;;;;;5.90;4.80;;;22.90;56.10;;;;;;6232804;23;20849;-86
2021/09/03 08:35:14;;;;;;;4.80;4.27;;;22.80;56.00;;;;;;6261131;23;20155;-86
2021/09/03 08:37:40;;;;;;;4.70;4.20;;;22.90;56.10;;;;;;6260249;23;20418;-86
2021/09/03 08:40:10;;;;;;;5.97;4.80;;;22.90;56.60;;;;;;6258970;23;20401;-87
2021/09/03 08:42:41;;;;;;;4.57;4.17;;;22.90;56.00;;;;;;6237539;23;20167;-86
2021/09/03 08:45:10;;;;;;;5.80;4.63;;;22.90;56.00;;;;;;6234655;23;20393;-86
2021/09/03 08:47:39;;;;;;;4.33;3.67;;;22.90;56.00;;;;;;6234477;23;20407;-87
2021/09/03 08:50:09;;;;;;;4.50;4.10;;;22.90;55.90;;;;;;6236182;23;20382;-86
2021/09/03 08:52:35;;;;;;;4.40;4.00;;;23.00;56.00;;;;;;6234082;23;20441;-85
2021/09/03 08:55:05;;;;;;;5.10;4.60;;;23.00;56.00;;;;;;6233830;23;20363;-85
2021/09/03 08:57:31;;;;;;;4.20;3.47;;;23.00;56.00;;;;;;6231942;23;20465;-86
2021/09/03 09:00:46;;;;;;;5.40;4.90;;;23.00;56.00;;;;;;6257198;23;20385;-86
2021/09/03 09:03:16;;;;;;;4.40;4.00;;;23.00;55.90;;;;;;6231532;23;20209;-86
2021/09/03 09:05:56;;;;;;;5.00;4.50;;;23.00;56.10;;;;;;6234095;23;20374;-85
2021/09/03 09:08:24;;;;;;;4.90;4.23;;;23.00;56.10;;;;;;6235005;23;20371;-85
2021/09/03 09:10:58;;;;;;;4.30;3.90;;;22.90;56.00;;;;;;6233410;23;20386;-87
2021/09/03 09:13:56;;;;;;;6.07;4.50;;;23.00;56.00;;;;;;6229194;23;20374;-86
2021/09/03 09:16:23;;;;;;;3.67;3.30;;;23.00;56.00;;;;;;6225337;23;20390;-86
2021/09/03 09:18:56;;;;;;;5.30;4.10;;;23.00;56.10;;;;;;6249928;23;20430;-88
2021/09/03 09:21:33;;;;;;;5.67;4.93;;;23.00;56.10;;;;;;6224557;23;20436;-87
2021/09/03 09:24:06;;;;;;;4.27;3.87;;;23.00;56.60;;;;;;6224303;23;20366;-87
2021/09/03 09:26:47;;;;;;;4.23;3.73;;;23.00;56.10;;;;;;6226818;23;20458;-87
2021/09/03 09:29:18;;;;;;;4.10;3.70;;;23.00;56.10;;;;;;6251050;23;20745;-87
2021/09/03 09:31:47;;;;;;;4.30;3.90;;;23.00;56.10;;;;;;6253840;23;20780;-87
2021/09/03 09:34:39;;;;;;;5.57;3.93;;;23.00;56.10;;;;;;6230099;23;20434;-87
2021/09/03 09:37:07;;;;;;;3.73;3.27;;;23.00;56.10;;;;;;6227942;23;20430;-87
2021/09/03 09:39:56;;;;;;;5.00;4.47;;;23.00;56.10;;;;;;6226770;23;20433;-86
2021/09/03 09:42:24;;;;;;;5.53;4.00;;;23.00;56.10;;;;;;6219116;23;20456;-86
2021/09/03 09:45:14;;;;;;;4.87;4.37;;;22.90;56.10;;;;;;6223935;23;20378;-87
2021/09/03 09:47:43;;;;;;;4.93;3.90;;;23.00;56.20;;;;;;6224354;23;20409;-87
2021/09/03 09:50:32;;;;;;;6.90;3.70;;;23.00;56.20;;;;;;6223850;23;20378;-87
2021/09/03 09:53:20;;;;;;;3.97;3.57;;;23.00;56.20;;;;;;6224445;23;20392;-87
2021/09/03 09:55:47;;;;;;;4.40;3.70;;;23.00;56.20;;;;;;6224373;23;20383;-87
2021/09/03 09:58:19;;;;;;;4.80;4.30;;;23.00;56.30;;;;;;6223950;23;20389;-87
2021/09/03 10:00:50;;;;;;;4.03;3.70;;;23.00;56.20;;;;;;6225518;23;20490;-87
2021/09/03 10:03:24;;;;;;;4.13;3.70;;;23.00;56.20;;;;;;6224372;23;20464;-86
2021/09/03 10:05:52;;;;;;;3.83;3.50;;;23.00;56.20;;;;;;6224221;23;20385;-86
2021/09/03 10:08:18;;;;;;;5.10;4.60;;;23.00;56.20;;;;;;6249233;23;20468;-86
2021/09/03 10:10:52;;;;;;;3.60;3.30;;;23.00;56.30;;;;;;6249238;23;20366;-86
2021/09/03 10:13:32;;;;;;;4.40;3.90;;;23.00;56.20;;;;;;6225496;23;20154;-86
2021/09/03 10:15:58;;;;;;;3.70;3.33;;;23.00;56.20;;;;;;6224253;23;20378;-87
2021/09/03 10:18:31;;;;;;;4.40;3.87;;;23.00;56.30;;;;;;6226702;23;20429;-87
2021/09/03 10:20:58;;;;;;;4.10;3.67;;;23.00;56.30;;;;;;6231541;23;20446;-87
2021/09/03 10:23:58;;;;;;;4.47;4.07;;;23.00;56.30;;;;;;6254053;23;20449;-87
2021/09/03 10:26:28;;;;;;;4.30;3.90;;;23.00;56.30;;;;;;6231043;23;20366;-88
2021/09/03 10:29:22;;;;;;;3.73;3.40;;;23.00;56.30;;;;;;6230242;23;20378;-87
2021/09/03 10:32:06;;;;;;;4.17;3.63;;;23.00;56.30;;;;;;6229314;23;20374;-87
2021/09/03 10:37:19;;;;;;;5.30;4.80;;;23.00;56.40;;;;;;6229821;23;20374;-88
2021/09/03 10:40:13;;;;;;;4.20;3.70;;;23.00;56.40;;;;;;6225091;23;20386;-87
2021/09/03 10:42:48;;;;;;;4.43;3.70;;;23.00;56.40;;;;;;6225603;23;20425;-87
2021/09/03 10:45:25;;;;;;;4.30;3.90;;;22.90;56.40;;;;;;6225197;23;20424;-87
2021/09/03 10:48:04;;;;;;;4.00;3.60;;;23.00;56.50;;;;;;6226078;23;20378;-87
2021/09/03 10:50:35;;;;;;;4.60;4.03;;;23.00;56.50;;;;;;6227674;23;20665;-88
2021/09/03 10:53:07;;;;;;;4.10;3.70;;;22.90;56.40;;;;;;6226217;23;20397;-87
2021/09/03 10:56:08;;;;;;;4.80;4.20;;;23.00;56.50;;;;;;6225444;23;20390;-86
2021/09/03 10:58:41;;;;;;;4.13;3.73;;;23.00;56.50;;;;;;6225264;23;20396;-87
2021/09/03 11:01:12;;;;;;;4.20;3.80;;;23.00;56.60;;;;;;6224858;23;20386;-86
2021/09/03 11:03:44;;;;;;;4.33;3.23;;;23.00;56.50;;;;;;6197451;23;20378;-87
2021/09/03 11:06:35;;;;;;;5.27;3.67;;;23.00;56.50;;;;;;6197259;23;20399;-87
2021/09/03 11:09:18;;;;;;;4.20;3.80;;;23.00;56.50;;;;;;6197522;23;20370;-86
2021/09/03 11:11:49;;;;;;;5.00;3.70;;;23.00;56.50;;;;;;6202557;23;20375;-87
2021/09/03 11:14:26;;;;;;;4.10;3.67;;;23.00;56.50;;;;;;6199932;23;20379;-86
2021/09/03 11:17:13;;;;;;;3.87;3.43;;;23.00;56.50;;;;;;6172487;23;20375;-86
2021/09/03 11:19:46;;;;;;;4.10;3.30;;;23.00;56.60;;;;;;6175207;23;20810;-86
2021/09/03 11:22:18;;;;;;;4.13;3.67;;;23.00;56.60;;;;;;6172165;23;20795;-87
2021/09/03 11:24:45;;;;;;;4.90;4.07;;;23.00;56.60;;;;;;6174925;23;20414;-87
2021/09/03 11:27:54;;;;;;;4.20;3.40;;;23.00;56.60;;;;;;6174285;23;20387;-85
2021/09/03 11:30:31;;;;;;;4.70;3.90;;;23.00;56.50;;;;;;6195079;23;20390;-85
2021/09/03 11:33:00;;;;;;;4.13;3.70;;;23.00;56.60;;;;;;6172692;23;20389;-86
2021/09/03 11:35:32;;;;;;;4.37;3.70;;;23.00;56.60;;;;;;6174896;23;20709;-85
2021/09/03 11:37:58;;;;;;;4.37;3.97;;;22.90;56.60;;;;;;6172670;23;20387;-84
2021/09/03 11:41:11;;;;;;;4.17;3.50;;;22.90;56.60;;;;;;6172854;23;20410;-85
2021/09/03 11:46:59;;;;;;;3.57;3.27;;;22.90;56.60;;;;;;6198846;23;20853;-84
2021/09/03 11:49:24;;;;;;;4.00;3.60;;;22.90;56.60;;;;;;6173833;23;20383;-85
2021/09/03 11:52:06;;;;;;;4.43;3.90;;;22.90;56.60;;;;;;6171694;23;20608;-86
2021/09/03 11:54:32;;;;;;;4.50;3.50;;;23.00;56.70;;;;;;6176440;23;20156;-82
2021/09/03 11:57:07;;;;;;;4.43;4.00;;;22.90;56.70;;;;;;6208899;23;20382;-83
2021/09/03 11:59:58;;;;;;;4.63;4.17;;;23.00;56.70;;;;;;6156379;23;20390;-83
2021/09/03 12:02:29;;;;;;;4.67;3.40;;;23.00;56.70;;;;;;6204769;23;20458;-84
2021/09/03 12:04:57;;;;;;;4.00;3.60;;;23.00;56.70;;;;;;6179822;23;20402;-83
2021/09/03 12:07:33;;;;;;;3.97;3.60;;;22.90;56.60;;;;;;6179336;23;20387;-84
2021/09/03 12:10:02;;;;;;;4.10;3.70;;;23.00;56.70;;;;;;6203696;23;20406;-84
2021/09/03 12:16:21;;;;;;;3.90;3.60;;;23.00;56.70;;;;;;6204592;23;20366;-83
2021/09/03 12:19:02;;;;;;;3.67;3.37;;;22.90;56.70;;;;;;6177646;23;20395;-83
2021/09/03 12:21:32;;;;;;;4.00;3.60;;;22.90;56.70;;;;;;6179005;23;20391;-84
2021/09/03 12:24:03;;;;;;;4.27;3.60;;;22.90;56.70;;;;;;6178667;23;20768;-83
2021/09/03 12:27:06;;;;;;;;;;;;;;;;;;;;;
2021/09/03 12:29:58;;;;;;;3.60;3.30;;;23.00;56.70;;;;;;6205341;23;20363;-83
2021/09/03 12:35:48;;;;;;;4.50;3.80;;;22.90;56.70;;;;;;6205126;23;20713;-84
2021/09/03 12:38:50;;;;;;;4.20;3.67;;;22.90;56.70;;;;;;6180317;23;20474;-83
2021/09/03 12:41:37;;;;;;;3.17;2.87;;;22.90;56.70;;;;;;6161168;23;20412;-83
2021/09/03 12:44:09;;;;;;;5.00;3.70;;;22.90;56.70;;;;;;6180917;23;20395;-83
2021/09/03 12:46:45;;;;;;;4.50;3.63;;;22.90;56.70;;;;;;6208385;23;20375;-84
2021/09/03 12:49:57;;;;;;;3.63;3.33;;;22.90;56.70;;;;;;6205728;23;20359;-84
2021/09/03 12:52:29;;;;;;;4.07;3.60;;;22.90;56.70;;;;;;6061802;23;20466;-84
2021/09/03 12:54:55;;;;;;;3.57;3.23;;;22.90;56.70;;;;;;6087622;23;20434;-83
2021/09/03 12:57:22;;;;;;;3.27;2.97;;;22.90;56.70;;;;;;6060752;23;20418;-83
2021/09/03 12:59:47;;;;;;;3.20;2.90;;;22.90;57.20;;;;;;6061242;23;20158;-83
2021/09/03 13:02:18;;;;;;;3.73;3.07;;;22.90;56.60;;;;;;6085488;23;20497;-84
2021/09/03 13:04:49;;;;;;;3.33;3.03;;;22.90;56.50;;;;;;6061180;23;20391;-84
2021/09/03 13:07:15;;;;;;;4.10;3.20;;;22.90;56.50;;;;;;6084664;23;20379;-84
2021/09/03 13:09:41;;;;;;;3.73;3.33;;;22.90;56.50;;;;;;6085187;23;20387;-83
2021/09/03 13:12:10;;;;;;;3.30;3.00;;;22.90;56.40;;;;;;6085387;23;20382;-83
2021/09/03 13:14:36;;;;;;;5.10;3.33;;;22.90;56.40;;;;;;6084889;23;20394;-84
2021/09/03 13:17:02;;;;;;;4.07;3.67;;;22.90;56.30;;;;;;6084709;23;20764;-84
2021/09/03 13:19:28;;;;;;;3.10;2.80;;;22.90;56.30;;;;;;6085160;23;20159;-84
2021/09/03 13:21:53;;;;;;;3.20;2.90;;;22.90;56.30;;;;;;6060817;23;20434;-83
2021/09/03 13:24:22;;;;;;;3.20;2.80;;;22.90;56.20;;;;;;6084382;23;20154;-83